createdAt,value
2019-01-23T00:00:33.641Z,18.20
2019-01-23T00:03:02.723Z,17.60
2019-01-23T00:05:31.836Z,18.20
2019-01-23T00:08:00.932Z,17.87
2019-01-23T00:10:30.036Z,17.40
2019-01-23T00:12:59.125Z,18.30
2019-01-23T00:15:28.240Z,16.90
2019-01-23T00:17:57.329Z,17.40
2019-01-23T00:20:26.444Z,15.87
2019-01-23T00:22:55.540Z,16.77
2019-01-23T00:25:24.644Z,16.90
2019-01-23T00:27:53.731Z,16.33
2019-01-23T00:30:22.845Z,17.87
2019-01-23T00:32:51.927Z,18.57
2019-01-23T00:35:21.040Z,18.13
2019-01-23T00:37:50.127Z,16.47
2019-01-23T00:40:19.238Z,16.40
2019-01-23T00:42:48.327Z,18.63
2019-01-23T00:45:17.452Z,16.70
2019-01-23T00:47:46.540Z,16.90
2019-01-23T00:50:15.734Z,16.70
2019-01-23T00:52:44.844Z,14.93
2019-01-23T00:55:14.656Z,19.47
2019-01-23T00:57:43.773Z,16.40
2019-01-23T01:00:16.412Z,17.73
2019-01-23T01:02:45.554Z,18.03
2019-01-23T01:05:15.474Z,17.73
2019-01-23T01:07:44.601Z,18.00
2019-01-23T01:10:14.284Z,15.60
2019-01-23T01:12:43.388Z,15.20
2019-01-23T01:15:13.554Z,17.03
2019-01-23T01:17:42.811Z,16.93
2019-01-23T01:20:12.405Z,15.43
2019-01-23T01:22:41.516Z,17.53
2019-01-23T01:25:12.461Z,17.03
2019-01-23T01:27:41.581Z,16.07
2019-01-23T01:30:28.628Z,17.23
2019-01-23T01:32:57.729Z,18.87
2019-01-23T01:35:26.824Z,18.27
2019-01-23T01:37:56.189Z,18.87
2019-01-23T01:40:25.276Z,18.97
2019-01-23T01:42:54.380Z,17.43
2019-01-23T01:45:23.465Z,17.23
2019-01-23T01:47:52.572Z,17.10
2019-01-23T01:50:21.909Z,16.47
2019-01-23T01:52:51.030Z,18.83
2019-01-23T01:55:20.143Z,17.57
2019-01-23T01:57:50.905Z,14.43
2019-01-23T02:00:21.673Z,17.83
2019-01-23T02:02:50.788Z,17.63
2019-01-23T02:05:19.993Z,14.77
2019-01-23T02:07:49.245Z,17.87
2019-01-23T02:10:19.854Z,16.87
2019-01-23T02:12:49.230Z,16.57
2019-01-23T02:15:19.020Z,16.10
2019-01-23T02:17:48.207Z,14.87
2019-01-23T02:20:19.444Z,18.53
2019-01-23T02:22:48.576Z,17.93
2019-01-23T02:25:18.147Z,17.20
2019-01-23T02:27:47.740Z,18.67
2019-01-23T02:30:18.625Z,17.53
2019-01-23T02:32:47.735Z,17.57
2019-01-23T02:35:16.929Z,17.57
2019-01-23T02:37:46.038Z,18.70
2019-01-23T02:40:19.739Z,18.03
2019-01-23T02:42:48.860Z,18.60
2019-01-23T02:45:18.163Z,20.10
2019-01-23T02:47:47.269Z,18.27
2019-01-23T02:50:17.064Z,16.03
2019-01-23T02:52:46.178Z,19.37
2019-01-23T02:55:15.279Z,20.40
2019-01-23T02:57:44.401Z,20.70
2019-01-23T03:00:15.700Z,20.83
2019-01-23T03:02:44.912Z,20.13
2019-01-23T03:05:16.003Z,19.80
2019-01-23T03:07:45.342Z,17.47
2019-01-23T03:10:16.289Z,20.50
2019-01-23T03:12:45.516Z,21.03
2019-01-23T03:15:15.307Z,19.63
2019-01-23T03:17:44.415Z,21.07
2019-01-23T03:20:15.544Z,20.67
2019-01-23T03:22:44.662Z,20.83
2019-01-23T03:25:14.018Z,21.40
2019-01-23T03:27:43.136Z,20.20
2019-01-23T03:30:17.585Z,21.63
2019-01-23T03:32:46.677Z,20.37
2019-01-23T03:35:15.760Z,18.60
2019-01-23T03:37:44.848Z,21.67
2019-01-23T03:40:16.313Z,20.93
2019-01-23T03:42:45.413Z,22.20
2019-01-23T03:45:15.115Z,23.10
2019-01-23T03:47:44.303Z,22.43
2019-01-23T03:50:15.537Z,19.90
2019-01-23T03:52:44.630Z,22.50
2019-01-23T03:55:14.520Z,20.33
2019-01-23T03:57:43.622Z,20.50
2019-01-23T04:00:14.894Z,20.97
2019-01-23T04:02:43.984Z,21.10
2019-01-23T04:05:13.200Z,21.27
2019-01-23T04:07:42.308Z,20.37
2019-01-23T04:10:13.173Z,21.30
2019-01-23T04:12:42.340Z,21.27
2019-01-23T04:15:12.581Z,21.70
2019-01-23T04:17:41.664Z,21.20
2019-01-23T04:20:15.520Z,21.00
2019-01-23T04:22:45.676Z,22.47
2019-01-23T04:25:15.126Z,22.27
2019-01-23T04:27:44.225Z,21.03
2019-01-23T04:30:16.088Z,22.77
2019-01-23T04:32:45.187Z,23.80
2019-01-23T04:35:14.289Z,21.37
2019-01-23T04:37:43.377Z,21.90
2019-01-23T04:40:12.851Z,22.30
2019-01-23T04:42:41.935Z,20.00
2019-01-23T04:45:12.010Z,23.40
2019-01-23T04:47:41.108Z,22.90
2019-01-23T04:50:11.329Z,22.77
2019-01-23T04:52:59.393Z,23.50
2019-01-23T04:55:28.538Z,21.43
2019-01-23T04:57:57.620Z,21.23
2019-01-23T05:00:27.896Z,22.97
2019-01-23T05:02:57.016Z,22.20
2019-01-23T05:05:26.088Z,23.33
2019-01-23T05:07:55.189Z,22.70
2019-01-23T05:10:24.295Z,22.97
2019-01-23T05:12:53.383Z,23.33
2019-01-23T05:15:22.597Z,26.60
2019-01-23T05:17:51.677Z,22.07
2019-01-23T05:20:20.812Z,19.73
2019-01-23T05:22:49.913Z,23.27
2019-01-23T05:25:19.018Z,25.43
2019-01-23T05:27:48.125Z,28.93
2019-01-23T05:30:22.538Z,21.47
2019-01-23T05:32:51.673Z,19.13
2019-01-23T05:35:20.804Z,22.47
2019-01-23T05:37:49.891Z,20.90
2019-01-23T05:40:19.002Z,22.17
2019-01-23T05:42:48.090Z,20.63
2019-01-23T05:45:17.206Z,18.97
2019-01-23T05:47:46.294Z,20.13
2019-01-23T05:50:16.176Z,21.23
2019-01-23T05:52:45.367Z,20.13
2019-01-23T05:55:14.592Z,21.90
2019-01-23T05:57:43.707Z,18.87
2019-01-23T06:00:15.356Z,19.70
2019-01-23T06:02:44.464Z,20.77
2019-01-23T06:05:13.978Z,20.47
2019-01-23T06:07:43.088Z,20.00
2019-01-23T06:10:12.195Z,22.20
2019-01-23T06:12:41.319Z,19.60
2019-01-23T06:15:10.889Z,20.00
2019-01-23T06:17:40.009Z,20.93
2019-01-23T06:20:11.191Z,19.87
2019-01-23T06:22:40.301Z,20.07
2019-01-23T06:25:09.420Z,20.17
2019-01-23T06:27:38.531Z,19.80
2019-01-23T06:30:14.017Z,21.10
2019-01-23T06:32:43.173Z,20.83
2019-01-23T06:35:12.466Z,21.00
2019-01-23T06:37:41.577Z,22.90
2019-01-23T06:40:11.774Z,18.60
2019-01-23T06:42:40.895Z,21.13
2019-01-23T06:45:11.836Z,18.97
2019-01-23T06:47:40.944Z,19.57
2019-01-23T06:50:12.974Z,22.07
2019-01-23T06:52:42.090Z,19.50
2019-01-23T06:55:11.313Z,17.63
2019-01-23T06:57:40.429Z,17.87
2019-01-23T07:00:17.109Z,19.37
2019-01-23T07:02:43.871Z,19.33
2019-01-23T07:05:13.272Z,17.87
2019-01-23T07:07:42.380Z,20.37
2019-01-23T07:10:14.702Z,19.93
2019-01-23T07:12:43.813Z,17.80
2019-01-23T07:15:12.908Z,18.17
2019-01-23T07:17:42.022Z,18.90
2019-01-23T07:20:14.800Z,16.70
2019-01-23T07:22:43.933Z,19.50
2019-01-23T07:25:13.517Z,17.37
2019-01-23T07:27:42.621Z,18.10
2019-01-23T07:30:24.207Z,18.10
2019-01-23T07:32:49.096Z,15.50
2019-01-23T07:35:18.205Z,17.80
2019-01-23T07:37:47.314Z,17.27
2019-01-23T07:40:16.393Z,16.70
2019-01-23T07:42:45.497Z,18.27
2019-01-23T07:45:15.685Z,18.73
2019-01-23T07:47:44.797Z,17.37
2019-01-23T07:50:14.589Z,17.57
2019-01-23T07:52:44.600Z,18.87
2019-01-23T07:55:15.129Z,18.07
2019-01-23T07:57:44.242Z,17.37
2019-01-23T08:00:15.900Z,18.13
2019-01-23T08:02:45.226Z,18.07
2019-01-23T08:05:19.362Z,19.23
2019-01-23T08:07:46.201Z,17.77
2019-01-23T08:10:16.219Z,15.77
2019-01-23T08:12:45.321Z,17.83
2019-01-23T08:15:20.327Z,17.60
2019-01-23T08:17:49.567Z,16.33
2019-01-23T08:20:19.392Z,18.70
2019-01-23T08:22:48.504Z,16.60
2019-01-23T08:25:17.584Z,15.80
2019-01-23T08:27:46.700Z,16.43
2019-01-23T08:30:16.886Z,16.60
2019-01-23T08:32:45.987Z,16.27
2019-01-23T08:35:15.516Z,17.60
2019-01-23T08:37:44.613Z,15.93
2019-01-23T08:40:14.733Z,17.83
2019-01-23T08:42:43.844Z,16.53
2019-01-23T08:45:13.754Z,16.43
2019-01-23T08:47:42.838Z,16.93
2019-01-23T08:50:18.544Z,16.10
2019-01-23T08:52:47.640Z,16.67
2019-01-23T08:55:16.799Z,16.90
2019-01-23T08:57:45.884Z,14.57
2019-01-23T09:00:15.259Z,16.30
2019-01-23T09:02:44.345Z,17.97
2019-01-23T09:05:13.617Z,17.67
2019-01-23T09:07:42.723Z,17.73
2019-01-23T09:10:14.752Z,17.17
2019-01-23T09:12:43.851Z,16.60
2019-01-23T09:15:13.245Z,16.60
2019-01-23T09:17:42.333Z,15.77
2019-01-23T09:20:12.212Z,15.90
2019-01-23T09:22:41.305Z,14.97
2019-01-23T09:25:12.074Z,16.57
2019-01-23T09:27:41.155Z,16.97
2019-01-23T09:30:16.579Z,16.60
2019-01-23T09:33:21.750Z,17.13
2019-01-23T09:36:31.613Z,17.03
2019-01-23T09:39:40.113Z,15.70
2019-01-23T09:42:42.638Z,15.07
2019-01-23T09:45:58.961Z,17.57
2019-01-23T09:49:02.712Z,16.63
2019-01-23T09:52:24.868Z,17.20
2019-01-23T09:54:54.002Z,15.37
2019-01-23T09:57:23.113Z,17.30
2019-01-23T09:59:52.220Z,18.03
2019-01-23T10:02:21.300Z,16.73
2019-01-23T10:04:50.425Z,18.13
2019-01-23T10:07:19.508Z,17.93
2019-01-23T10:09:48.627Z,19.07
2019-01-23T10:12:17.721Z,17.70
2019-01-23T10:14:46.805Z,18.67
2019-01-23T10:17:15.908Z,18.30
2019-01-23T10:19:45.002Z,18.23
2019-01-23T10:22:14.108Z,20.03
2019-01-23T10:24:43.196Z,18.03
2019-01-23T10:27:12.315Z,18.50
2019-01-23T10:29:41.402Z,17.03
2019-01-23T10:32:10.505Z,18.17
2019-01-23T10:34:39.597Z,16.83
2019-01-23T10:37:08.732Z,17.77
2019-01-23T10:39:37.815Z,17.83
2019-01-23T10:42:07.128Z,18.30
2019-01-23T10:44:36.246Z,18.17
2019-01-23T10:47:05.336Z,18.20
2019-01-23T10:49:34.428Z,19.00
2019-01-23T10:52:03.544Z,19.10
2019-01-23T10:54:32.656Z,19.87
2019-01-23T10:57:01.872Z,19.37
2019-01-23T10:59:31.011Z,18.40
2019-01-23T11:02:00.140Z,18.73
2019-01-23T11:04:29.233Z,18.33
2019-01-23T11:06:58.369Z,18.63
2019-01-23T11:09:27.600Z,19.23
2019-01-23T11:11:56.688Z,19.20
2019-01-23T11:14:25.802Z,19.60
2019-01-23T11:16:54.895Z,18.90
2019-01-23T11:19:24.040Z,18.33
2019-01-23T11:21:53.121Z,18.80
2019-01-23T11:24:22.224Z,19.80
2019-01-23T11:26:51.312Z,19.30
2019-01-23T11:29:20.421Z,18.87
2019-01-23T11:31:49.513Z,19.10
2019-01-23T11:34:18.625Z,18.93
2019-01-23T11:36:47.717Z,17.30
2019-01-23T11:39:16.828Z,18.27
2019-01-23T11:41:45.917Z,17.80
2019-01-23T11:44:15.030Z,18.70
2019-01-23T11:46:44.124Z,16.83
2019-01-23T11:49:13.257Z,17.13
2019-01-23T11:51:42.357Z,16.40
2019-01-23T11:54:11.464Z,16.57
2019-01-23T11:56:40.596Z,15.60
2019-01-23T11:59:09.708Z,16.77
2019-01-23T12:01:38.796Z,16.60
2019-01-23T12:04:07.923Z,17.00
2019-01-23T12:06:37.009Z,17.50
2019-01-23T12:09:08.844Z,14.33
2019-01-23T12:11:37.937Z,17.13
2019-01-23T12:14:07.043Z,16.57
2019-01-23T12:16:36.144Z,16.47
2019-01-23T12:19:05.356Z,14.73
2019-01-23T12:21:34.447Z,16.03
2019-01-23T12:24:03.565Z,14.60
2019-01-23T12:26:32.648Z,14.70
2019-01-23T12:29:01.752Z,15.80
2019-01-23T12:31:34.874Z,14.57
2019-01-23T12:34:01.677Z,15.30
2019-01-23T12:36:30.765Z,15.40
2019-01-23T12:38:59.853Z,15.67
2019-01-23T12:41:28.966Z,14.97
2019-01-23T12:43:58.054Z,13.53
2019-01-23T12:46:27.168Z,14.43
2019-01-23T12:48:56.252Z,14.00
2019-01-23T12:51:25.361Z,14.10
2019-01-23T12:53:54.449Z,13.90
2019-01-23T12:56:23.587Z,14.83
2019-01-23T12:58:52.659Z,14.20
2019-01-23T13:01:21.771Z,14.40
2019-01-23T13:03:50.848Z,13.87
2019-01-23T13:06:19.973Z,15.27
2019-01-23T13:08:49.064Z,15.37
2019-01-23T13:11:18.176Z,15.37
2019-01-23T13:13:47.291Z,14.70
2019-01-23T13:16:16.409Z,14.93
2019-01-23T13:18:45.504Z,15.37
2019-01-23T13:21:14.613Z,14.63
2019-01-23T13:23:43.705Z,15.00
2019-01-23T13:26:12.812Z,13.43
2019-01-23T13:28:41.904Z,15.53
2019-01-23T13:31:11.011Z,15.27
2019-01-23T13:33:40.104Z,15.87
2019-01-23T13:36:09.966Z,16.73
2019-01-23T13:38:39.072Z,16.57
2019-01-23T13:41:08.182Z,14.03
2019-01-23T13:43:37.263Z,15.60
2019-01-23T13:46:06.385Z,15.83
2019-01-23T13:48:35.477Z,16.40
2019-01-23T13:51:04.688Z,15.83
2019-01-23T13:53:33.773Z,16.23
2019-01-23T13:56:02.903Z,16.20
2019-01-23T13:58:31.989Z,16.93
2019-01-23T14:01:01.120Z,16.67
2019-01-23T14:03:30.213Z,16.27
2019-01-23T14:05:59.329Z,17.30
2019-01-23T14:08:28.666Z,16.73
2019-01-23T14:10:57.830Z,17.03
2019-01-23T14:13:26.926Z,16.13
2019-01-23T14:15:56.040Z,15.13
2019-01-23T14:18:25.125Z,15.67
2019-01-23T14:20:54.240Z,15.87
2019-01-23T14:23:23.323Z,15.53
2019-01-23T14:25:52.429Z,15.97
2019-01-23T14:28:21.530Z,16.63
2019-01-23T14:30:50.644Z,17.80
2019-01-23T14:33:19.736Z,16.30
2019-01-23T14:35:48.901Z,16.63
2019-01-23T14:38:18.020Z,16.17
2019-01-23T14:40:47.114Z,16.63
2019-01-23T14:43:16.625Z,16.20
2019-01-23T14:45:45.724Z,15.80
2019-01-23T14:48:14.857Z,17.13
2019-01-23T14:50:43.948Z,16.57
2019-01-23T14:53:14.236Z,16.00
2019-01-23T14:55:43.540Z,15.50
2019-01-23T14:58:12.753Z,16.20
2019-01-23T15:00:41.859Z,14.90
2019-01-23T15:03:10.965Z,17.17
2019-01-23T15:05:40.057Z,17.30
2019-01-23T15:08:09.167Z,15.60
2019-01-23T15:10:38.249Z,14.13
2019-01-23T15:13:07.362Z,16.27
2019-01-23T15:15:36.457Z,16.33
2019-01-23T15:18:05.805Z,14.67
2019-01-23T15:20:37.148Z,15.30
2019-01-23T15:23:06.354Z,13.83
2019-01-23T15:25:35.452Z,15.70
2019-01-23T15:28:04.890Z,15.37
2019-01-23T15:30:34.080Z,15.07
2019-01-23T15:33:03.192Z,14.57
2019-01-23T15:35:32.289Z,15.40
2019-01-23T15:38:01.405Z,15.97
2019-01-23T15:40:32.922Z,15.33
2019-01-23T15:43:02.041Z,15.53
2019-01-23T15:45:31.119Z,15.53
2019-01-23T15:48:00.228Z,15.87
2019-01-23T15:50:29.726Z,17.30
2019-01-23T15:52:58.833Z,15.57
2019-01-23T15:55:27.968Z,16.23
2019-01-23T15:57:57.086Z,14.83
2019-01-23T16:00:31.293Z,17.37
2019-01-23T16:03:00.395Z,17.67
2019-01-23T16:05:29.486Z,15.73
2019-01-23T16:07:58.801Z,16.50
2019-01-23T16:10:29.187Z,17.63
2019-01-23T16:12:58.317Z,17.23
2019-01-23T16:15:28.474Z,16.03
2019-01-23T16:17:57.746Z,17.03
2019-01-23T16:20:27.047Z,16.30
2019-01-23T16:22:56.298Z,17.90
2019-01-23T16:25:25.396Z,18.47
2019-01-23T16:27:54.512Z,16.30
2019-01-23T16:30:33.155Z,16.93
2019-01-23T16:33:02.268Z,15.00
2019-01-23T16:35:38.305Z,16.70
2019-01-23T16:38:02.383Z,16.97
2019-01-23T16:40:31.477Z,15.97
2019-01-23T16:43:00.590Z,18.63
2019-01-23T16:45:29.718Z,16.33
2019-01-23T16:47:58.785Z,16.57
2019-01-23T16:50:27.999Z,15.70
2019-01-23T16:52:57.086Z,16.53
2019-01-23T16:55:26.224Z,16.17
2019-01-23T16:57:55.827Z,17.93
2019-01-23T17:00:25.761Z,15.30
2019-01-23T17:02:54.851Z,15.53
2019-01-23T17:05:26.844Z,16.33
2019-01-23T17:07:57.053Z,15.57
2019-01-23T17:10:26.602Z,16.63
2019-01-23T17:12:55.700Z,15.03
2019-01-23T17:15:24.816Z,16.17
2019-01-23T17:17:53.917Z,16.53
2019-01-23T17:20:27.414Z,15.27
2019-01-23T17:22:56.510Z,14.60
2019-01-23T17:25:25.618Z,16.83
2019-01-23T17:27:54.718Z,16.10
2019-01-23T17:30:23.585Z,15.40
2019-01-23T17:32:52.808Z,16.67
2019-01-23T17:35:22.044Z,16.20
2019-01-23T17:37:51.145Z,17.03
2019-01-23T17:40:20.560Z,14.80
2019-01-23T17:42:49.690Z,15.13
2019-01-23T17:45:29.760Z,16.20
2019-01-23T17:47:59.246Z,15.20
2019-01-23T17:50:28.348Z,15.50
2019-01-23T17:52:57.471Z,14.77
2019-01-23T17:55:29.011Z,17.13
2019-01-23T17:57:58.413Z,16.57
2019-01-23T18:00:29.396Z,15.50
2019-01-23T18:02:58.512Z,15.03
2019-01-23T18:05:27.617Z,15.13
2019-01-23T18:07:56.741Z,15.63
2019-01-23T18:10:25.854Z,15.53
2019-01-23T18:12:54.986Z,15.10
2019-01-23T18:15:24.931Z,14.13
2019-01-23T18:17:54.149Z,16.43
2019-01-23T18:20:27.913Z,15.20
2019-01-23T18:22:57.370Z,15.80
2019-01-23T18:25:26.671Z,16.50
2019-01-23T18:27:55.778Z,16.90
2019-01-23T18:30:31.152Z,16.87
2019-01-23T18:33:01.208Z,14.40
2019-01-23T18:36:02.107Z,15.00
2019-01-23T18:38:41.674Z,14.13
2019-01-23T18:41:50.901Z,14.07
2019-01-23T18:44:53.990Z,14.47
2019-01-23T18:47:59.619Z,13.63
2019-01-23T18:50:53.047Z,14.00
2019-01-23T18:53:22.186Z,13.53
2019-01-23T18:55:51.320Z,15.23
2019-01-23T18:58:20.424Z,14.83
2019-01-23T19:00:49.508Z,15.30
2019-01-23T19:03:18.628Z,13.53
2019-01-23T19:05:47.753Z,15.97
2019-01-23T19:08:18.146Z,15.43
2019-01-23T19:10:47.370Z,20.73
2019-01-23T19:13:16.497Z,19.73
2019-01-23T19:15:45.701Z,15.33
2019-01-23T19:18:14.792Z,17.50
2019-01-23T19:20:43.913Z,18.97
2019-01-23T19:23:12.996Z,17.43
2019-01-23T19:25:42.127Z,17.00
2019-01-23T19:28:11.229Z,19.67
2019-01-23T19:30:40.350Z,18.17
2019-01-23T19:33:13.499Z,17.53
2019-01-23T19:35:40.304Z,14.87
2019-01-23T19:38:09.390Z,16.20
2019-01-23T19:40:38.512Z,15.47
2019-01-23T19:43:07.635Z,15.73
2019-01-23T19:45:36.749Z,15.43
2019-01-23T19:48:05.915Z,16.23
2019-01-23T19:50:35.030Z,16.00
2019-01-23T19:53:04.325Z,17.33
2019-01-23T19:55:33.429Z,15.30
2019-01-23T19:58:04.465Z,15.90
2019-01-23T20:00:34.205Z,16.23
2019-01-23T20:03:03.311Z,17.47
2019-01-23T20:05:34.531Z,17.83
2019-01-23T20:08:03.802Z,17.83
2019-01-23T20:10:32.889Z,17.73
2019-01-23T20:13:02.023Z,18.43
2019-01-23T20:15:31.889Z,17.03
2019-01-23T20:18:09.415Z,21.10
2019-01-23T20:20:38.561Z,21.47
2019-01-23T20:23:07.686Z,53.33
2019-01-23T20:25:36.792Z,20.83
2019-01-23T20:28:09.134Z,16.53
2019-01-23T20:30:40.615Z,17.20
2019-01-23T20:33:10.236Z,17.93
2019-01-23T20:35:39.349Z,17.40
2019-01-23T20:38:08.482Z,15.73
2019-01-23T20:40:37.582Z,16.97
2019-01-23T20:43:07.417Z,15.03
2019-01-23T20:45:36.518Z,15.73
2019-01-23T20:48:07.485Z,17.47
2019-01-23T20:50:36.578Z,17.53
2019-01-23T20:53:05.838Z,17.23
2019-01-23T20:55:34.958Z,16.77
2019-01-23T20:58:04.190Z,15.80
2019-01-23T21:00:33.792Z,15.50
2019-01-23T21:03:03.120Z,15.30
2019-01-23T21:05:32.304Z,16.43
2019-01-23T21:08:01.425Z,16.27
2019-01-23T21:10:30.531Z,14.93
2019-01-23T21:12:59.647Z,16.40
2019-01-23T21:15:32.676Z,17.57
2019-01-23T21:18:02.567Z,15.53
2019-01-23T21:20:34.203Z,17.00
2019-01-23T21:23:03.304Z,16.20
2019-01-23T21:25:32.397Z,16.30
2019-01-23T21:28:01.532Z,16.23
2019-01-23T21:30:30.632Z,16.93
2019-01-23T21:32:59.825Z,15.13
2019-01-23T21:35:28.918Z,15.27
2019-01-23T21:37:58.033Z,16.33
2019-01-23T21:40:29.740Z,17.50
2019-01-23T21:42:58.858Z,15.10
2019-01-23T21:45:28.283Z,15.53
2019-01-23T21:47:57.386Z,15.20
2019-01-23T21:50:26.493Z,16.47
2019-01-23T21:52:55.618Z,16.83
2019-01-23T21:55:24.941Z,17.40
2019-01-23T21:57:54.117Z,17.17
2019-01-23T22:00:38.011Z,17.37
2019-01-23T22:03:07.992Z,16.43
2019-01-23T22:05:37.177Z,17.60
2019-01-23T22:08:08.094Z,16.30
2019-01-23T22:10:37.212Z,15.60
2019-01-23T22:13:06.763Z,15.50
2019-01-23T22:15:35.870Z,15.93
2019-01-23T22:18:06.087Z,15.77
2019-01-23T22:20:35.222Z,15.30
2019-01-23T22:23:04.447Z,15.60
2019-01-23T22:25:33.609Z,15.33
2019-01-23T22:28:02.690Z,15.60
2019-01-23T22:30:32.509Z,17.77
2019-01-23T22:33:01.549Z,16.03
2019-01-23T22:35:30.660Z,15.13
2019-01-23T22:37:59.752Z,16.77
2019-01-23T22:40:28.866Z,15.80
2019-01-23T22:42:57.952Z,17.27
2019-01-23T22:45:27.061Z,15.40
2019-01-23T22:47:56.137Z,16.63
2019-01-23T22:50:26.946Z,15.83
2019-01-23T22:52:56.024Z,15.70
2019-01-23T22:55:25.140Z,16.20
2019-01-23T22:57:54.249Z,17.87
2019-01-23T23:01:19.425Z,15.97
2019-01-23T23:03:48.522Z,16.50
2019-01-23T23:06:17.626Z,15.17
2019-01-23T23:08:46.713Z,15.40
2019-01-23T23:11:15.821Z,15.73
2019-01-23T23:13:44.909Z,14.57
2019-01-23T23:16:14.011Z,15.53
2019-01-23T23:18:43.093Z,14.83
2019-01-23T23:21:12.196Z,16.10
2019-01-23T23:23:41.285Z,15.97
2019-01-23T23:26:10.370Z,15.67
2019-01-23T23:28:39.476Z,16.07
2019-01-23T23:31:08.560Z,15.60
2019-01-23T23:33:37.677Z,15.13
2019-01-23T23:36:06.766Z,14.80
2019-01-23T23:38:35.875Z,15.73
2019-01-23T23:41:04.967Z,15.13
2019-01-23T23:43:34.085Z,15.97
2019-01-23T23:46:03.196Z,15.40
2019-01-23T23:48:32.312Z,15.37
2019-01-23T23:51:01.404Z,15.47
2019-01-23T23:53:30.517Z,14.73
2019-01-23T23:55:59.607Z,14.40
2019-01-23T23:58:28.744Z,14.43
